sensor_id;sensor_type;location;lat;lon;timestamp;P1;durP1;ratioP1;P2;durP2;ratioP2
61531;SDS011;47397;48.194;11.632;2023-05-15T00:00:18;4.15;;;3.65;;
61531;SDS011;47397;48.194;11.632;2023-05-15T00:01:19;4.32;;;3.83;;
61531;SDS011;47397;48.194;11.632;2023-05-15T00:02:20;4.25;;;3.70;;
61531;SDS011;47397;48.194;11.632;2023-05-15T00:03:20;4.85;;;3.90;;
61531;SDS011;47397;48.194;11.632;2023-05-15T00:04:20;5.40;;;3.80;;
61531;SDS011;47397;48.194;11.632;2023-05-15T00:05:21;5.97;;;4.03;;
61531;SDS011;47397;48.194;11.632;2023-05-15T00:06:21;4.75;;;3.53;;
61531;SDS011;47397;48.194;11.632;2023-05-15T00:07:22;4.18;;;2.92;;
61531;SDS011;47397;48.194;11.632;2023-05-15T00:08:22;4.60;;;3.42;;
61531;SDS011;47397;48.194;11.632;2023-05-15T00:09:22;5.22;;;3.80;;
61531;SDS011;47397;48.194;11.632;2023-05-15T00:10:24;4.05;;;3.50;;
61531;SDS011;47397;48.194;11.632;2023-05-15T00:11:25;4.10;;;3.40;;
61531;SDS011;47397;48.194;11.632;2023-05-15T00:12:25;5.05;;;3.42;;
61531;SDS011;47397;48.194;11.632;2023-05-15T00:13:26;5.32;;;3.50;;
61531;SDS011;47397;48.194;11.632;2023-05-15T00:14:26;5.90;;;3.92;;
61531;SDS011;47397;48.194;11.632;2023-05-15T00:15:26;4.78;;;3.60;;
61531;SDS011;47397;48.194;11.632;2023-05-15T00:16:27;4.38;;;3.80;;
61531;SDS011;47397;48.194;11.632;2023-05-15T00:17:27;3.80;;;3.22;;
61531;SDS011;47397;48.194;11.632;2023-05-15T00:18:28;4.13;;;3.17;;
61531;SDS011;47397;48.194;11.632;2023-05-15T00:19:28;5.22;;;3.40;;
61531;SDS011;47397;48.194;11.632;2023-05-15T00:20:29;5.80;;;3.47;;
61531;SDS011;47397;48.194;11.632;2023-05-15T00:21:29;5.43;;;4.03;;
61531;SDS011;47397;48.194;11.632;2023-05-15T00:22:29;4.80;;;3.70;;
61531;SDS011;47397;48.194;11.632;2023-05-15T00:23:30;5.35;;;3.63;;
61531;SDS011;47397;48.194;11.632;2023-05-15T00:24:30;4.72;;;3.75;;
61531;SDS011;47397;48.194;11.632;2023-05-15T00:25:32;5.28;;;3.65;;
61531;SDS011;47397;48.194;11.632;2023-05-15T00:26:48;4.85;;;3.70;;
61531;SDS011;47397;48.194;11.632;2023-05-15T00:27:48;5.10;;;3.50;;
61531;SDS011;47397;48.194;11.632;2023-05-15T00:28:48;4.70;;;3.67;;
61531;SDS011;47397;48.194;11.632;2023-05-15T00:29:49;5.13;;;3.25;;
61531;SDS011;47397;48.194;11.632;2023-05-15T00:30:49;4.70;;;3.53;;
61531;SDS011;47397;48.194;11.632;2023-05-15T00:31:50;5.13;;;3.88;;
61531;SDS011;47397;48.194;11.632;2023-05-15T00:32:50;4.60;;;3.67;;
61531;SDS011;47397;48.194;11.632;2023-05-15T00:33:50;4.97;;;3.75;;
61531;SDS011;47397;48.194;11.632;2023-05-15T00:34:51;5.60;;;4.32;;
61531;SDS011;47397;48.194;11.632;2023-05-15T00:35:51;5.78;;;4.18;;
61531;SDS011;47397;48.194;11.632;2023-05-15T00:36:52;4.68;;;3.35;;
61531;SDS011;47397;48.194;11.632;2023-05-15T00:37:52;4.07;;;3.45;;
61531;SDS011;47397;48.194;11.632;2023-05-15T00:38:52;4.80;;;3.65;;
61531;SDS011;47397;48.194;11.632;2023-05-15T00:39:53;5.00;;;3.42;;
61531;SDS011;47397;48.194;11.632;2023-05-15T00:40:55;5.22;;;3.30;;
61531;SDS011;47397;48.194;11.632;2023-05-15T00:41:56;4.55;;;3.35;;
61531;SDS011;47397;48.194;11.632;2023-05-15T00:42:58;4.05;;;3.40;;
61531;SDS011;47397;48.194;11.632;2023-05-15T00:44:01;4.70;;;3.67;;
61531;SDS011;47397;48.194;11.632;2023-05-15T00:45:01;7.30;;;4.07;;
61531;SDS011;47397;48.194;11.632;2023-05-15T00:46:02;4.57;;;3.42;;
61531;SDS011;47397;48.194;11.632;2023-05-15T00:47:03;3.67;;;2.90;;
61531;SDS011;47397;48.194;11.632;2023-05-15T00:48:06;5.20;;;3.67;;
61531;SDS011;47397;48.194;11.632;2023-05-15T00:49:08;5.05;;;3.67;;
61531;SDS011;47397;48.194;11.632;2023-05-15T00:50:09;4.78;;;3.53;;
61531;SDS011;47397;48.194;11.632;2023-05-15T00:51:10;4.95;;;3.22;;
61531;SDS011;47397;48.194;11.632;2023-05-15T00:52:11;4.88;;;3.75;;
61531;SDS011;47397;48.194;11.632;2023-05-15T00:53:11;5.13;;;3.50;;
61531;SDS011;47397;48.194;11.632;2023-05-15T00:54:12;5.22;;;3.70;;
61531;SDS011;47397;48.194;11.632;2023-05-15T00:55:12;4.97;;;3.78;;
61531;SDS011;47397;48.194;11.632;2023-05-15T00:56:14;4.60;;;3.60;;
61531;SDS011;47397;48.194;11.632;2023-05-15T00:57:16;4.60;;;3.70;;
61531;SDS011;47397;48.194;11.632;2023-05-15T00:58:17;5.47;;;3.53;;
61531;SDS011;47397;48.194;11.632;2023-05-15T00:59:20;4.80;;;3.80;;
61531;SDS011;47397;48.194;11.632;2023-05-15T01:00:22;4.55;;;3.63;;
61531;SDS011;47397;48.194;11.632;2023-05-15T01:01:23;4.78;;;3.35;;
61531;SDS011;47397;48.194;11.632;2023-05-15T01:02:25;5.75;;;3.92;;
61531;SDS011;47397;48.194;11.632;2023-05-15T01:03:26;4.43;;;3.53;;
61531;SDS011;47397;48.194;11.632;2023-05-15T01:04:26;5.78;;;4.50;;
61531;SDS011;47397;48.194;11.632;2023-05-15T01:05:27;5.43;;;3.70;;
61531;SDS011;47397;48.194;11.632;2023-05-15T01:06:28;5.30;;;4.05;;
61531;SDS011;47397;48.194;11.632;2023-05-15T01:07:29;5.22;;;4.30;;
61531;SDS011;47397;48.194;11.632;2023-05-15T01:08:34;5.30;;;4.32;;
61531;SDS011;47397;48.194;11.632;2023-05-15T01:09:37;5.88;;;4.57;;
61531;SDS011;47397;48.194;11.632;2023-05-15T01:10:41;5.72;;;4.18;;
61531;SDS011;47397;48.194;11.632;2023-05-15T01:11:43;5.82;;;4.45;;
61531;SDS011;47397;48.194;11.632;2023-05-15T01:12:46;6.03;;;4.18;;
61531;SDS011;47397;48.194;11.632;2023-05-15T01:13:49;6.50;;;4.50;;
61531;SDS011;47397;48.194;11.632;2023-05-15T01:14:50;6.07;;;4.57;;
61531;SDS011;47397;48.194;11.632;2023-05-15T01:15:50;5.20;;;4.50;;
61531;SDS011;47397;48.194;11.632;2023-05-15T01:16:50;6.70;;;4.60;;
61531;SDS011;47397;48.194;11.632;2023-05-15T01:17:51;5.47;;;4.38;;
61531;SDS011;47397;48.194;11.632;2023-05-15T01:18:51;5.82;;;4.60;;
61531;SDS011;47397;48.194;11.632;2023-05-15T01:19:51;6.78;;;4.47;;
61531;SDS011;47397;48.194;11.632;2023-05-15T01:20:58;6.07;;;4.57;;
61531;SDS011;47397;48.194;11.632;2023-05-15T01:22:18;5.32;;;4.18;;
61531;SDS011;47397;48.194;11.632;2023-05-15T01:23:37;4.75;;;4.18;;
61531;SDS011;47397;48.194;11.632;2023-05-15T01:24:54;4.72;;;4.20;;
61531;SDS011;47397;48.194;11.632;2023-05-15T01:26:15;5.45;;;4.30;;
61531;SDS011;47397;48.194;11.632;2023-05-15T01:27:28;5.18;;;3.95;;
61531;SDS011;47397;48.194;11.632;2023-05-15T01:28:32;5.70;;;4.30;;
61531;SDS011;47397;48.194;11.632;2023-05-15T01:29:40;6.18;;;4.55;;
61531;SDS011;47397;48.194;11.632;2023-05-15T01:30:43;5.18;;;4.10;;
61531;SDS011;47397;48.194;11.632;2023-05-15T01:31:46;5.47;;;4.38;;
61531;SDS011;47397;48.194;11.632;2023-05-15T01:32:52;6.05;;;4.50;;
61531;SDS011;47397;48.194;11.632;2023-05-15T01:34:01;6.07;;;4.00;;
61531;SDS011;47397;48.194;11.632;2023-05-15T01:35:08;6.43;;;4.90;;
61531;SDS011;47397;48.194;11.632;2023-05-15T01:36:13;5.55;;;4.25;;
61531;SDS011;47397;48.194;11.632;2023-05-15T01:37:18;6.03;;;4.20;;
61531;SDS011;47397;48.194;11.632;2023-05-15T01:38:26;5.40;;;4.25;;
61531;SDS011;47397;48.194;11.632;2023-05-15T01:39:30;6.03;;;4.45;;
61531;SDS011;47397;48.194;11.632;2023-05-15T01:40:32;5.57;;;4.43;;
61531;SDS011;47397;48.194;11.632;2023-05-15T01:41:34;5.70;;;4.88;;
61531;SDS011;47397;48.194;11.632;2023-05-15T01:42:43;5.75;;;4.40;;
61531;SDS011;47397;48.194;11.632;2023-05-15T01:43:51;5.97;;;4.47;;
61531;SDS011;47397;48.194;11.632;2023-05-15T01:44:56;5.97;;;4.53;;
61531;SDS011;47397;48.194;11.632;2023-05-15T01:45:58;5.70;;;4.80;;
61531;SDS011;47397;48.194;11.632;2023-05-15T01:47:00;6.55;;;4.70;;
61531;SDS011;47397;48.194;11.632;2023-05-15T01:48:21;8.18;;;4.40;;
61531;SDS011;47397;48.194;11.632;2023-05-15T01:50:55;6.38;;;4.88;;
61531;SDS011;47397;48.194;11.632;2023-05-15T01:52:01;5.70;;;4.72;;
61531;SDS011;47397;48.194;11.632;2023-05-15T01:53:06;6.05;;;4.75;;
61531;SDS011;47397;48.194;11.632;2023-05-15T01:54:08;7.30;;;5.03;;
61531;SDS011;47397;48.194;11.632;2023-05-15T01:55:09;6.78;;;5.28;;
61531;SDS011;47397;48.194;11.632;2023-05-15T01:56:12;6.60;;;5.00;;
61531;SDS011;47397;48.194;11.632;2023-05-15T01:57:14;6.53;;;5.10;;
61531;SDS011;47397;48.194;11.632;2023-05-15T01:58:17;6.75;;;5.13;;
61531;SDS011;47397;48.194;11.632;2023-05-15T01:59:18;6.78;;;5.40;;
61531;SDS011;47397;48.194;11.632;2023-05-15T02:00:19;8.38;;;5.13;;
61531;SDS011;47397;48.194;11.632;2023-05-15T02:01:21;7.88;;;5.30;;
61531;SDS011;47397;48.194;11.632;2023-05-15T02:02:23;7.07;;;5.32;;
61531;SDS011;47397;48.194;11.632;2023-05-15T02:03:24;6.50;;;5.07;;
61531;SDS011;47397;48.194;11.632;2023-05-15T02:04:25;7.20;;;5.30;;
61531;SDS011;47397;48.194;11.632;2023-05-15T02:05:25;7.43;;;5.50;;
61531;SDS011;47397;48.194;11.632;2023-05-15T02:06:26;6.78;;;5.38;;
61531;SDS011;47397;48.194;11.632;2023-05-15T02:07:27;6.70;;;5.03;;
61531;SDS011;47397;48.194;11.632;2023-05-15T02:08:28;7.88;;;5.90;;
61531;SDS011;47397;48.194;11.632;2023-05-15T02:09:30;7.07;;;5.22;;
61531;SDS011;47397;48.194;11.632;2023-05-15T02:10:32;7.43;;;5.05;;
61531;SDS011;47397;48.194;11.632;2023-05-15T02:11:33;8.50;;;5.43;;
61531;SDS011;47397;48.194;11.632;2023-05-15T02:12:34;7.40;;;5.80;;
61531;SDS011;47397;48.194;11.632;2023-05-15T02:13:36;7.95;;;5.70;;
61531;SDS011;47397;48.194;11.632;2023-05-15T02:14:37;7.03;;;5.63;;
61531;SDS011;47397;48.194;11.632;2023-05-15T02:15:39;8.40;;;6.13;;
61531;SDS011;47397;48.194;11.632;2023-05-15T02:16:39;8.10;;;5.35;;
61531;SDS011;47397;48.194;11.632;2023-05-15T02:17:40;7.80;;;5.82;;
61531;SDS011;47397;48.194;11.632;2023-05-15T02:18:40;7.70;;;5.57;;
61531;SDS011;47397;48.194;11.632;2023-05-15T02:19:41;8.57;;;5.60;;
61531;SDS011;47397;48.194;11.632;2023-05-15T02:20:41;6.93;;;5.32;;
61531;SDS011;47397;48.194;11.632;2023-05-15T02:21:42;7.55;;;5.28;;
61531;SDS011;47397;48.194;11.632;2023-05-15T02:22:42;7.38;;;5.75;;
61531;SDS011;47397;48.194;11.632;2023-05-15T02:23:42;7.13;;;5.13;;
61531;SDS011;47397;48.194;11.632;2023-05-15T02:24:43;6.82;;;5.13;;
61531;SDS011;47397;48.194;11.632;2023-05-15T02:25:45;7.65;;;5.13;;
61531;SDS011;47397;48.194;11.632;2023-05-15T02:26:56;7.10;;;5.45;;
61531;SDS011;47397;48.194;11.632;2023-05-15T02:28:01;9.77;;;5.57;;
61531;SDS011;47397;48.194;11.632;2023-05-15T02:29:10;7.78;;;5.20;;
61531;SDS011;47397;48.194;11.632;2023-05-15T02:30:19;7.28;;;5.38;;
61531;SDS011;47397;48.194;11.632;2023-05-15T02:31:33;9.02;;;5.45;;
61531;SDS011;47397;48.194;11.632;2023-05-15T02:32:40;7.20;;;5.32;;
61531;SDS011;47397;48.194;11.632;2023-05-15T02:33:58;6.88;;;5.50;;
61531;SDS011;47397;48.194;11.632;2023-05-15T02:35:08;8.38;;;5.75;;
61531;SDS011;47397;48.194;11.632;2023-05-15T02:36:16;9.40;;;6.65;;
61531;SDS011;47397;48.194;11.632;2023-05-15T02:37:20;8.98;;;6.47;;
61531;SDS011;47397;48.194;11.632;2023-05-15T02:38:27;8.30;;;5.88;;
61531;SDS011;47397;48.194;11.632;2023-05-15T02:39:30;9.55;;;5.68;;
61531;SDS011;47397;48.194;11.632;2023-05-15T02:40:32;8.00;;;6.15;;
61531;SDS011;47397;48.194;11.632;2023-05-15T02:41:35;8.95;;;6.18;;
61531;SDS011;47397;48.194;11.632;2023-05-15T02:42:36;8.32;;;6.20;;
61531;SDS011;47397;48.194;11.632;2023-05-15T02:43:38;8.57;;;6.28;;
61531;SDS011;47397;48.194;11.632;2023-05-15T02:44:40;10.50;;;6.07;;
61531;SDS011;47397;48.194;11.632;2023-05-15T02:45:42;8.57;;;6.47;;
61531;SDS011;47397;48.194;11.632;2023-05-15T02:46:44;10.32;;;6.47;;
61531;SDS011;47397;48.194;11.632;2023-05-15T02:47:46;8.05;;;6.20;;
61531;SDS011;47397;48.194;11.632;2023-05-15T02:48:47;8.45;;;6.30;;
61531;SDS011;47397;48.194;11.632;2023-05-15T02:49:49;9.70;;;6.10;;
61531;SDS011;47397;48.194;11.632;2023-05-15T02:50:50;8.55;;;6.53;;
61531;SDS011;47397;48.194;11.632;2023-05-15T02:51:51;10.15;;;6.72;;
61531;SDS011;47397;48.194;11.632;2023-05-15T02:52:59;9.00;;;6.78;;
61531;SDS011;47397;48.194;11.632;2023-05-15T02:54:00;10.10;;;7.05;;
61531;SDS011;47397;48.194;11.632;2023-05-15T02:55:01;9.82;;;6.65;;
61531;SDS011;47397;48.194;11.632;2023-05-15T02:56:02;9.75;;;7.20;;
61531;SDS011;47397;48.194;11.632;2023-05-15T02:57:03;9.50;;;6.75;;
61531;SDS011;47397;48.194;11.632;2023-05-15T02:58:04;10.45;;;6.93;;
61531;SDS011;47397;48.194;11.632;2023-05-15T02:59:04;9.50;;;6.72;;
61531;SDS011;47397;48.194;11.632;2023-05-15T03:00:07;10.23;;;6.93;;
61531;SDS011;47397;48.194;11.632;2023-05-15T03:01:08;9.38;;;7.15;;
61531;SDS011;47397;48.194;11.632;2023-05-15T03:02:08;10.07;;;7.05;;
61531;SDS011;47397;48.194;11.632;2023-05-15T03:03:09;11.65;;;7.53;;
61531;SDS011;47397;48.194;11.632;2023-05-15T03:04:09;12.10;;;8.40;;
61531;SDS011;47397;48.194;11.632;2023-05-15T03:05:10;10.77;;;7.65;;
61531;SDS011;47397;48.194;11.632;2023-05-15T03:06:10;9.98;;;7.13;;
61531;SDS011;47397;48.194;11.632;2023-05-15T03:07:10;9.93;;;7.10;;
61531;SDS011;47397;48.194;11.632;2023-05-15T03:08:11;10.73;;;7.25;;
61531;SDS011;47397;48.194;11.632;2023-05-15T03:09:11;9.45;;;7.00;;
61531;SDS011;47397;48.194;11.632;2023-05-15T03:10:11;11.40;;;8.00;;
61531;SDS011;47397;48.194;11.632;2023-05-15T03:11:12;10.38;;;7.78;;
61531;SDS011;47397;48.194;11.632;2023-05-15T03:12:12;12.25;;;8.40;;
61531;SDS011;47397;48.194;11.632;2023-05-15T03:13:13;11.27;;;7.43;;
61531;SDS011;47397;48.194;11.632;2023-05-15T03:14:13;10.80;;;7.82;;
61531;SDS011;47397;48.194;11.632;2023-05-15T03:15:15;10.48;;;7.47;;
61531;SDS011;47397;48.194;11.632;2023-05-15T03:16:15;13.45;;;8.00;;
61531;SDS011;47397;48.194;11.632;2023-05-15T03:17:16;11.07;;;8.32;;
61531;SDS011;47397;48.194;11.632;2023-05-15T03:18:16;10.68;;;7.88;;
61531;SDS011;47397;48.194;11.632;2023-05-15T03:19:16;11.05;;;7.38;;
61531;SDS011;47397;48.194;11.632;2023-05-15T03:20:17;11.32;;;8.38;;
61531;SDS011;47397;48.194;11.632;2023-05-15T03:21:17;11.30;;;8.25;;
61531;SDS011;47397;48.194;11.632;2023-05-15T03:22:18;11.88;;;7.72;;
61531;SDS011;47397;48.194;11.632;2023-05-15T03:23:18;10.68;;;7.40;;
61531;SDS011;47397;48.194;11.632;2023-05-15T03:24:19;12.25;;;8.02;;
61531;SDS011;47397;48.194;11.632;2023-05-15T03:25:21;12.23;;;7.68;;
61531;SDS011;47397;48.194;11.632;2023-05-15T03:26:21;11.45;;;8.10;;
61531;SDS011;47397;48.194;11.632;2023-05-15T03:27:22;10.63;;;8.15;;
61531;SDS011;47397;48.194;11.632;2023-05-15T03:28:22;9.77;;;7.75;;
61531;SDS011;47397;48.194;11.632;2023-05-15T03:29:22;11.52;;;8.23;;
61531;SDS011;47397;48.194;11.632;2023-05-15T03:30:24;10.60;;;7.75;;
61531;SDS011;47397;48.194;11.632;2023-05-15T03:31:25;11.40;;;8.13;;
61531;SDS011;47397;48.194;11.632;2023-05-15T03:32:25;10.38;;;7.75;;
61531;SDS011;47397;48.194;11.632;2023-05-15T03:33:25;11.23;;;7.93;;
61531;SDS011;47397;48.194;11.632;2023-05-15T03:34:26;10.55;;;7.68;;
61531;SDS011;47397;48.194;11.632;2023-05-15T03:35:26;12.32;;;8.15;;
61531;SDS011;47397;48.194;11.632;2023-05-15T03:36:26;10.40;;;7.82;;
61531;SDS011;47397;48.194;11.632;2023-05-15T03:37:27;11.15;;;7.65;;
61531;SDS011;47397;48.194;11.632;2023-05-15T03:38:27;9.68;;;7.28;;
61531;SDS011;47397;48.194;11.632;2023-05-15T03:39:28;11.90;;;7.85;;
61531;SDS011;47397;48.194;11.632;2023-05-15T03:40:28;11.07;;;8.15;;
61531;SDS011;47397;48.194;11.632;2023-05-15T03:41:28;11.63;;;8.52;;
61531;SDS011;47397;48.194;11.632;2023-05-15T03:42:29;10.27;;;7.60;;
61531;SDS011;47397;48.194;11.632;2023-05-15T03:43:29;11.98;;;7.78;;
61531;SDS011;47397;48.194;11.632;2023-05-15T03:44:30;11.10;;;7.90;;
61531;SDS011;47397;48.194;11.632;2023-05-15T03:45:32;11.35;;;8.40;;
61531;SDS011;47397;48.194;11.632;2023-05-15T03:46:32;12.52;;;8.50;;
61531;SDS011;47397;48.194;11.632;2023-05-15T03:47:33;11.25;;;8.43;;
61531;SDS011;47397;48.194;11.632;2023-05-15T03:48:33;11.80;;;8.05;;
61531;SDS011;47397;48.194;11.632;2023-05-15T03:49:33;11.82;;;8.60;;
61531;SDS011;47397;48.194;11.632;2023-05-15T03:50:34;11.38;;;7.93;;
61531;SDS011;47397;48.194;11.632;2023-05-15T03:51:34;10.65;;;8.02;;
61531;SDS011;47397;48.194;11.632;2023-05-15T03:52:35;11.18;;;8.25;;
61531;SDS011;47397;48.194;11.632;2023-05-15T03:53:35;9.68;;;7.80;;
61531;SDS011;47397;48.194;11.632;2023-05-15T03:54:35;10.13;;;7.53;;
61531;SDS011;47397;48.194;11.632;2023-05-15T03:55:36;10.30;;;7.97;;
61531;SDS011;47397;48.194;11.632;2023-05-15T03:56:36;13.85;;;7.95;;
61531;SDS011;47397;48.194;11.632;2023-05-15T03:57:37;10.60;;;7.97;;
61531;SDS011;47397;48.194;11.632;2023-05-15T03:58:38;11.52;;;7.70;;
61531;SDS011;47397;48.194;11.632;2023-05-15T03:59:38;12.77;;;8.48;;
61531;SDS011;47397;48.194;11.632;2023-05-15T04:00:40;10.10;;;8.00;;
61531;SDS011;47397;48.194;11.632;2023-05-15T04:01:41;9.35;;;7.18;;
61531;SDS011;47397;48.194;11.632;2023-05-15T04:02:41;11.13;;;8.20;;
61531;SDS011;47397;48.194;11.632;2023-05-15T04:03:41;11.43;;;8.32;;
61531;SDS011;47397;48.194;11.632;2023-05-15T04:04:42;11.07;;;8.18;;
61531;SDS011;47397;48.194;11.632;2023-05-15T04:05:42;11.25;;;8.05;;
61531;SDS011;47397;48.194;11.632;2023-05-15T04:06:43;10.85;;;8.25;;
61531;SDS011;47397;48.194;11.632;2023-05-15T04:07:43;10.32;;;7.50;;
61531;SDS011;47397;48.194;11.632;2023-05-15T04:08:44;9.93;;;7.68;;
61531;SDS011;47397;48.194;11.632;2023-05-15T04:09:44;9.27;;;7.25;;
61531;SDS011;47397;48.194;11.632;2023-05-15T04:10:44;9.70;;;7.15;;
61531;SDS011;47397;48.194;11.632;2023-05-15T04:11:45;11.20;;;7.68;;
61531;SDS011;47397;48.194;11.632;2023-05-15T04:12:45;9.02;;;7.13;;
61531;SDS011;47397;48.194;11.632;2023-05-15T04:13:46;9.73;;;7.63;;
61531;SDS011;47397;48.194;11.632;2023-05-15T04:14:46;10.63;;;7.80;;
61531;SDS011;47397;48.194;11.632;2023-05-15T04:15:48;10.18;;;7.20;;
61531;SDS011;47397;48.194;11.632;2023-05-15T04:16:49;9.95;;;7.00;;
61531;SDS011;47397;48.194;11.632;2023-05-15T04:17:50;10.30;;;7.10;;
61531;SDS011;47397;48.194;11.632;2023-05-15T04:18:51;9.48;;;7.50;;
61531;SDS011;47397;48.194;11.632;2023-05-15T04:19:52;9.77;;;7.13;;
61531;SDS011;47397;48.194;11.632;2023-05-15T04:20:52;9.57;;;7.38;;
61531;SDS011;47397;48.194;11.632;2023-05-15T04:21:52;12.10;;;7.63;;
61531;SDS011;47397;48.194;11.632;2023-05-15T04:22:53;9.98;;;7.15;;
61531;SDS011;47397;48.194;11.632;2023-05-15T04:23:53;10.45;;;7.63;;
61531;SDS011;47397;48.194;11.632;2023-05-15T04:24:54;10.20;;;7.28;;
61531;SDS011;47397;48.194;11.632;2023-05-15T04:25:54;9.25;;;6.90;;
61531;SDS011;47397;48.194;11.632;2023-05-15T04:26:55;8.98;;;7.20;;
61531;SDS011;47397;48.194;11.632;2023-05-15T04:27:55;9.63;;;7.35;;
61531;SDS011;47397;48.194;11.632;2023-05-15T04:28:56;11.55;;;8.20;;
61531;SDS011;47397;48.194;11.632;2023-05-15T04:29:56;8.82;;;6.50;;
61531;SDS011;47397;48.194;11.632;2023-05-15T04:30:58;9.27;;;6.35;;
61531;SDS011;47397;48.194;11.632;2023-05-15T04:31:58;10.00;;;7.65;;
61531;SDS011;47397;48.194;11.632;2023-05-15T04:32:58;10.63;;;7.43;;
61531;SDS011;47397;48.194;11.632;2023-05-15T04:33:59;14.25;;;7.60;;
61531;SDS011;47397;48.194;11.632;2023-05-15T04:34:59;9.68;;;7.25;;
61531;SDS011;47397;48.194;11.632;2023-05-15T04:36:00;10.25;;;7.53;;
61531;SDS011;47397;48.194;11.632;2023-05-15T04:37:00;10.48;;;7.50;;
61531;SDS011;47397;48.194;11.632;2023-05-15T04:38:01;9.85;;;7.22;;
61531;SDS011;47397;48.194;11.632;2023-05-15T04:39:01;9.07;;;7.82;;
61531;SDS011;47397;48.194;11.632;2023-05-15T04:40:02;9.88;;;7.47;;
61531;SDS011;47397;48.194;11.632;2023-05-15T04:41:02;10.50;;;8.25;;
61531;SDS011;47397;48.194;11.632;2023-05-15T04:42:03;10.95;;;7.88;;
61531;SDS011;47397;48.194;11.632;2023-05-15T04:43:04;10.18;;;7.15;;
61531;SDS011;47397;48.194;11.632;2023-05-15T04:44:04;9.85;;;7.40;;
61531;SDS011;47397;48.194;11.632;2023-05-15T04:45:05;12.60;;;8.07;;
61531;SDS011;47397;48.194;11.632;2023-05-15T04:46:08;9.45;;;6.82;;
61531;SDS011;47397;48.194;11.632;2023-05-15T04:47:08;10.68;;;7.43;;
61531;SDS011;47397;48.194;11.632;2023-05-15T04:48:09;10.93;;;8.15;;
61531;SDS011;47397;48.194;11.632;2023-05-15T04:49:09;10.27;;;7.90;;
61531;SDS011;47397;48.194;11.632;2023-05-15T04:50:10;10.88;;;8.13;;
61531;SDS011;47397;48.194;11.632;2023-05-15T04:51:10;11.65;;;7.70;;
61531;SDS011;47397;48.194;11.632;2023-05-15T04:52:10;10.43;;;7.78;;
61531;SDS011;47397;48.194;11.632;2023-05-15T04:53:11;9.75;;;7.78;;
61531;SDS011;47397;48.194;11.632;2023-05-15T04:54:11;10.88;;;7.40;;
61531;SDS011;47397;48.194;11.632;2023-05-15T04:55:12;10.10;;;7.40;;
61531;SDS011;47397;48.194;11.632;2023-05-15T04:56:12;11.13;;;7.50;;
61531;SDS011;47397;48.194;11.632;2023-05-15T04:57:13;10.85;;;7.85;;
61531;SDS011;47397;48.194;11.632;2023-05-15T04:58:13;10.63;;;8.07;;
61531;SDS011;47397;48.194;11.632;2023-05-15T04:59:13;10.68;;;7.40;;
61531;SDS011;47397;48.194;11.632;2023-05-15T05:00:14;9.52;;;7.10;;
61531;SDS011;47397;48.194;11.632;2023-05-15T05:01:16;9.32;;;7.57;;
61531;SDS011;47397;48.194;11.632;2023-05-15T05:02:18;9.93;;;7.65;;
61531;SDS011;47397;48.194;11.632;2023-05-15T05:03:19;9.40;;;7.50;;
61531;SDS011;47397;48.194;11.632;2023-05-15T05:04:20;11.35;;;8.05;;
61531;SDS011;47397;48.194;11.632;2023-05-15T05:05:20;10.75;;;7.78;;
61531;SDS011;47397;48.194;11.632;2023-05-15T05:06:21;9.93;;;7.65;;
61531;SDS011;47397;48.194;11.632;2023-05-15T05:07:22;9.52;;;7.32;;
61531;SDS011;47397;48.194;11.632;2023-05-15T05:08:22;10.70;;;7.90;;
61531;SDS011;47397;48.194;11.632;2023-05-15T05:09:22;9.35;;;6.95;;
61531;SDS011;47397;48.194;11.632;2023-05-15T05:10:23;9.63;;;7.35;;
61531;SDS011;47397;48.194;11.632;2023-05-15T05:11:23;10.65;;;7.80;;
61531;SDS011;47397;48.194;11.632;2023-05-15T05:12:24;10.70;;;7.60;;
61531;SDS011;47397;48.194;11.632;2023-05-15T05:13:24;10.38;;;8.20;;
61531;SDS011;47397;48.194;11.632;2023-05-15T05:14:25;10.45;;;7.57;;
61531;SDS011;47397;48.194;11.632;2023-05-15T05:15:25;10.60;;;7.60;;
61531;SDS011;47397;48.194;11.632;2023-05-15T05:16:27;10.80;;;7.90;;
61531;SDS011;47397;48.194;11.632;2023-05-15T05:17:28;9.27;;;7.50;;
61531;SDS011;47397;48.194;11.632;2023-05-15T05:18:28;10.70;;;7.78;;
61531;SDS011;47397;48.194;11.632;2023-05-15T05:19:29;12.13;;;8.68;;
61531;SDS011;47397;48.194;11.632;2023-05-15T05:20:29;11.25;;;8.07;;
61531;SDS011;47397;48.194;11.632;2023-05-15T05:21:30;11.43;;;8.35;;
61531;SDS011;47397;48.194;11.632;2023-05-15T05:22:30;10.55;;;7.82;;
61531;SDS011;47397;48.194;11.632;2023-05-15T05:23:31;10.52;;;7.72;;
61531;SDS011;47397;48.194;11.632;2023-05-15T05:24:31;11.77;;;8.38;;
61531;SDS011;47397;48.194;11.632;2023-05-15T05:25:32;11.48;;;8.27;;
61531;SDS011;47397;48.194;11.632;2023-05-15T05:26:32;10.48;;;8.38;;
61531;SDS011;47397;48.194;11.632;2023-05-15T05:27:33;10.25;;;8.25;;
61531;SDS011;47397;48.194;11.632;2023-05-15T05:28:33;11.45;;;8.57;;
61531;SDS011;47397;48.194;11.632;2023-05-15T05:29:34;10.60;;;8.15;;
61531;SDS011;47397;48.194;11.632;2023-05-15T05:30:34;12.73;;;8.15;;
61531;SDS011;47397;48.194;11.632;2023-05-15T05:31:37;13.10;;;8.02;;
61531;SDS011;47397;48.194;11.632;2023-05-15T05:32:40;12.20;;;7.78;;
61531;SDS011;47397;48.194;11.632;2023-05-15T05:33:40;11.50;;;8.27;;
61531;SDS011;47397;48.194;11.632;2023-05-15T05:34:41;11.55;;;8.65;;
61531;SDS011;47397;48.194;11.632;2023-05-15T05:35:41;11.57;;;8.35;;
61531;SDS011;47397;48.194;11.632;2023-05-15T05:36:41;10.95;;;7.57;;
61531;SDS011;47397;48.194;11.632;2023-05-15T05:37:42;12.15;;;8.38;;
61531;SDS011;47397;48.194;11.632;2023-05-15T05:38:42;11.35;;;8.25;;
61531;SDS011;47397;48.194;11.632;2023-05-15T05:39:43;11.20;;;8.57;;
61531;SDS011;47397;48.194;11.632;2023-05-15T05:40:43;12.10;;;8.13;;
61531;SDS011;47397;48.194;11.632;2023-05-15T05:41:43;12.18;;;8.68;;
61531;SDS011;47397;48.194;11.632;2023-05-15T05:42:44;10.73;;;8.43;;
61531;SDS011;47397;48.194;11.632;2023-05-15T05:43:44;10.52;;;8.25;;
61531;SDS011;47397;48.194;11.632;2023-05-15T05:44:45;10.85;;;7.70;;
61531;SDS011;47397;48.194;11.632;2023-05-15T05:45:45;10.10;;;8.23;;
61531;SDS011;47397;48.194;11.632;2023-05-15T05:46:48;10.60;;;8.10;;
61531;SDS011;47397;48.194;11.632;2023-05-15T05:47:48;9.70;;;7.38;;
61531;SDS011;47397;48.194;11.632;2023-05-15T05:48:48;11.02;;;8.13;;
61531;SDS011;47397;48.194;11.632;2023-05-15T05:49:49;10.73;;;8.63;;
61531;SDS011;47397;48.194;11.632;2023-05-15T05:50:49;12.10;;;8.05;;
61531;SDS011;47397;48.194;11.632;2023-05-15T05:51:50;11.68;;;7.65;;
61531;SDS011;47397;48.194;11.632;2023-05-15T05:52:50;11.93;;;7.72;;
61531;SDS011;47397;48.194;11.632;2023-05-15T05:53:50;11.93;;;8.57;;
61531;SDS011;47397;48.194;11.632;2023-05-15T05:54:51;11.45;;;8.68;;
61531;SDS011;47397;48.194;11.632;2023-05-15T05:55:51;11.57;;;8.50;;
61531;SDS011;47397;48.194;11.632;2023-05-15T05:56:52;12.35;;;8.80;;
61531;SDS011;47397;48.194;11.632;2023-05-15T05:57:52;11.68;;;8.27;;
61531;SDS011;47397;48.194;11.632;2023-05-15T05:58:53;12.85;;;8.10;;
61531;SDS011;47397;48.194;11.632;2023-05-15T05:59:53;11.82;;;7.85;;
61531;SDS011;47397;48.194;11.632;2023-05-15T06:00:54;10.63;;;8.45;;
61531;SDS011;47397;48.194;11.632;2023-05-15T06:01:55;11.80;;;7.88;;
61531;SDS011;47397;48.194;11.632;2023-05-15T06:02:56;11.13;;;8.30;;
61531;SDS011;47397;48.194;11.632;2023-05-15T06:03:58;13.05;;;8.38;;
61531;SDS011;47397;48.194;11.632;2023-05-15T06:04:58;9.68;;;7.10;;